Time;durP1;ratioP1;P1;durP2;ratioP2;P2;SDS_P1;SDS_P2;PMS_P1;PMS_P2;Temp;Humidity;BMP_temperature;BMP_pressure;BME280_temperature;BME280_humidity;BME280_pressure;Samples;Min_cycle;Max_cycle;Signal;HPM_P1;HPM_P2
2021/06/02 00:05:36;;;;;;;0.00;0.00;;;;;;;;;;5095765;28;20035;-68
2021/06/02 00:08:01;;;;;;;0.00;0.00;;;;;;;;;;5057430;28;20029;-68
2021/06/02 00:10:27;;;;;;;0.00;0.00;;;;;;;;;;5072285;28;20826;-68
2021/06/02 00:12:52;;;;;;;0.00;0.00;;;;;;;;;;5094127;28;20120;-68
2021/06/02 00:15:18;;;;;;;0.00;0.00;;;;;;;;;;5077007;28;20372;-68
2021/06/02 00:17:43;;;;;;;0.00;0.00;;;;;;;;;;5060393;28;20028;-68
2021/06/02 00:20:08;;;;;;;0.00;0.00;;;;;;;;;;5060261;28;20092;-68
2021/06/02 00:22:34;;;;;;;0.00;0.00;;;;;;;;;;5076721;28;20346;-68
2021/06/02 00:24:59;;;;;;;0.00;0.00;;;;;;;;;;5059870;28;20012;-68
2021/06/02 00:27:24;;;;;;;0.00;0.00;;;;;;;;;;5060036;28;20110;-68
2021/06/02 00:29:50;;;;;;;0.00;0.00;;;;;;;;;;5077051;28;20024;-68
2021/06/02 00:32:15;;;;;;;0.00;0.00;;;;;;;;;;5075500;28;20278;-68
2021/06/02 00:34:41;;;;;;;0.00;0.00;;;;;;;;;;5059715;28;20089;-68
2021/06/02 00:37:07;;;;;;;0.00;0.00;;;;;;;;;;5076808;28;20020;-68
2021/06/02 00:39:32;;;;;;;0.00;0.00;;;;;;;;;;5077330;28;20592;-68
2021/06/02 00:41:57;;;;;;;0.00;0.00;;;;;;;;;;5059407;28;20019;-68
2021/06/02 00:44:23;;;;;;;0.00;0.00;;;;;;;;;;5077015;28;20469;-68
2021/06/02 00:46:48;;;;;;;0.00;0.00;;;;;;;;;;5060079;28;20016;-68
2021/06/02 00:49:24;;;;;;;0.00;0.00;;;;;;;;;;5077018;28;20016;-68
2021/06/02 00:51:55;;;;;;;0.00;0.00;;;;;;;;;;5077334;28;20016;-68
2021/06/02 00:54:20;;;;;;;0.00;0.00;;;;;;;;;;5094137;28;20027;-68
2021/06/02 00:56:49;;;;;;;0.10;0.10;;;;;;;;;;5076398;28;20024;-68
2021/06/02 00:59:19;;;;;;;0.00;0.00;;;;;;;;;;5059854;28;20035;-68
2021/06/02 01:01:44;;;;;;;0.00;0.00;;;;;;;;;;5076235;28;20012;-68
2021/06/02 01:04:09;;;;;;;0.00;0.00;;;;;;;;;;5078686;28;20043;-68
2021/06/02 01:06:34;;;;;;;0.00;0.00;;;;;;;;;;5084546;28;20024;-69
2021/06/02 01:09:00;;;;;;;0.00;0.00;;;;;;;;;;5065600;28;20261;-68
2021/06/02 01:11:25;;;;;;;0.00;0.00;;;;;;;;;;5083173;28;20472;-68
2021/06/02 01:13:51;;;;;;;0.00;0.00;;;;;;;;;;5082642;28;20032;-69
2021/06/02 01:16:16;;;;;;;0.00;0.00;;;;;;;;;;5073468;28;20017;-68
2021/06/02 01:18:41;;;;;;;0.00;0.00;;;;;;;;;;5058790;28;20020;-68
2021/06/02 01:21:10;;;;;;;0.00;0.00;;;;;;;;;;5059087;28;20107;-68
2021/06/02 01:23:36;;;;;;;0.00;0.00;;;;;;;;;;5065489;28;20353;-68
2021/06/02 01:26:01;;;;;;;0.00;0.00;;;;;;;;;;5058317;28;20424;-68
2021/06/02 01:28:26;;;;;;;0.00;0.00;;;;;;;;;;5088289;28;20259;-68
2021/06/02 01:30:51;;;;;;;0.00;0.00;;;;;;;;;;5081517;28;20254;-68
2021/06/02 01:33:23;;;;;;;0.00;0.00;;;;;;;;;;5060459;28;20044;-69
2021/06/02 01:35:52;;;;;;;0.00;0.00;;;;;;;;;;5084744;28;20266;-68
2021/06/02 01:38:36;;;;;;;0.00;0.00;;;;;;;;;;5080964;28;20419;-68
2021/06/02 01:41:10;;;;;;;0.00;0.00;;;;;;;;;;5078431;28;20437;-68
2021/06/02 01:43:35;;;;;;;0.00;0.00;;;;;;;;;;5083749;28;20100;-68
2021/06/02 01:46:00;;;;;;;0.00;0.00;;;;;;;;;;5093393;28;20016;-68
2021/06/02 01:48:33;;;;;;;0.00;0.00;;;;;;;;;;5103571;28;20139;-68
2021/06/02 01:51:04;;;;;;;0.00;0.00;;;;;;;;;;5072093;28;20515;-68
2021/06/02 01:53:35;;;;;;;0.00;0.00;;;;;;;;;;5082166;28;20020;-68
2021/06/02 01:56:12;;;;;;;0.10;0.10;;;;;;;;;;5103803;28;20042;-68
2021/06/02 01:58:56;;;;;;;0.00;0.00;;;;;;;;;;5075550;28;20031;-68
2021/06/02 02:01:40;;;;;;;0.00;0.00;;;;;;;;;;5070688;28;20373;-68
2021/06/02 02:04:06;;;;;;;0.00;0.00;;;;;;;;;;5070986;28;20469;-69
2021/06/02 02:06:43;;;;;;;0.00;0.00;;;;;;;;;;5094209;28;20019;-69
2021/06/02 02:09:13;;;;;;;0.00;0.00;;;;;;;;;;5093483;28;20017;-68
2021/06/02 02:11:39;;;;;;;0.00;0.00;;;;;;;;;;5081167;28;20464;-68
2021/06/02 02:14:21;;;;;;;0.00;0.00;;;;;;;;;;5083117;28;20028;-68
2021/06/02 02:17:06;;;;;;;0.05;0.05;;;;;;;;;;5081553;28;20024;-68
2021/06/02 02:19:50;;;;;;;0.00;0.00;;;;;;;;;;5097530;28;20118;-68
2021/06/02 02:22:18;;;;;;;0.00;0.00;;;;;;;;;;5095288;28;20443;-68
2021/06/02 02:24:50;;;;;;;0.00;0.00;;;;;;;;;;5072896;28;20099;-68
2021/06/02 02:27:34;;;;;;;0.00;0.00;;;;;;;;;;5071699;28;20450;-67
2021/06/02 02:30:06;;;;;;;0.00;0.00;;;;;;;;;;5074804;28;20020;-67
2021/06/02 02:32:50;;;;;;;0.00;0.00;;;;;;;;;;5084337;28;20020;-67
2021/06/02 02:35:34;;;;;;;0.00;0.00;;;;;;;;;;5070302;28;20028;-68
2021/06/02 02:37:59;;;;;;;0.00;0.00;;;;;;;;;;5077867;28;20063;-68
2021/06/02 02:40:26;;;;;;;0.00;0.00;;;;;;;;;;5085883;28;20025;-68
2021/06/02 02:43:01;;;;;;;0.00;0.00;;;;;;;;;;5102111;28;20088;-68
2021/06/02 02:45:28;;;;;;;0.00;0.00;;;;;;;;;;5071488;28;20039;-68
2021/06/02 02:48:03;;;;;;;0.00;0.00;;;;;;;;;;5057528;28;20028;-68
2021/06/02 02:50:31;;;;;;;0.00;0.00;;;;;;;;;;5079718;28;20028;-68
2021/06/02 02:52:59;;;;;;;0.00;0.00;;;;;;;;;;5092874;28;20034;-68
2021/06/02 02:55:28;;;;;;;0.05;0.05;;;;;;;;;;5088860;28;20016;-68
2021/06/02 02:57:53;;;;;;;0.00;0.00;;;;;;;;;;5044232;28;20020;-68
2021/06/02 03:00:20;;;;;;;0.00;0.00;;;;;;;;;;5093634;28;20091;-68
2021/06/02 03:02:46;;;;;;;0.00;0.00;;;;;;;;;;5083707;28;20274;-69
2021/06/02 03:05:13;;;;;;;0.00;0.00;;;;;;;;;;5077210;28;20101;-68
2021/06/02 03:07:38;;;;;;;0.00;0.00;;;;;;;;;;5059468;28;20027;-68
2021/06/02 03:10:07;;;;;;;0.00;0.00;;;;;;;;;;5059030;28;20028;-69
2021/06/02 03:12:52;;;;;;;0.00;0.00;;;;;;;;;;5094650;28;20020;-69
2021/06/02 03:15:17;;;;;;;0.00;0.00;;;;;;;;;;5088529;28;20051;-69
2021/06/02 03:17:51;;;;;;;0.10;0.10;;;;;;;;;;5097245;28;20044;-69
2021/06/02 03:20:16;;;;;;;0.03;0.03;;;;;;;;;;5076791;28;20270;-68
2021/06/02 03:23:00;;;;;;;0.00;0.00;;;;;;;;;;5097288;28;20023;-68
2021/06/02 03:25:31;;;;;;;0.00;0.00;;;;;;;;;;5075082;28;20031;-68
2021/06/02 03:28:09;;;;;;;0.00;0.00;;;;;;;;;;5082628;28;20036;-68
2021/06/02 03:31:00;;;;;;;0.00;0.00;;;;;;;;;;5077548;28;20091;-69
2021/06/02 03:33:44;;;;;;;0.00;0.00;;;;;;;;;;5075194;28;20404;-68
2021/06/02 03:36:16;;;;;;;0.00;0.00;;;;;;;;;;5098455;28;20020;-68
2021/06/02 03:39:00;;;;;;;0.00;0.00;;;;;;;;;;5077964;28;20502;-68
2021/06/02 03:41:28;;;;;;;0.10;0.10;;;;;;;;;;5088163;28;20059;-68
2021/06/02 03:43:55;;;;;;;0.10;0.10;;;;;;;;;;5100747;28;20016;-69
2021/06/02 03:46:38;;;;;;;0.00;0.00;;;;;;;;;;5067047;28;20021;-68
2021/06/02 03:49:03;;;;;;;0.00;0.00;;;;;;;;;;5061511;28;21060;-68
2021/06/02 03:51:35;;;;;;;0.00;0.00;;;;;;;;;;5081330;28;20029;-68
2021/06/02 03:54:09;;;;;;;0.00;0.00;;;;;;;;;;5075009;28;20874;-67
2021/06/02 03:56:47;;;;;;;0.00;0.00;;;;;;;;;;5074206;28;20511;-68
2021/06/02 03:59:31;;;;;;;0.10;0.10;;;;;;;;;;5087242;28;20114;-68
2021/06/02 04:02:02;;;;;;;0.00;0.00;;;;;;;;;;5103156;28;20027;-70
2021/06/02 04:04:29;;;;;;;0.10;0.10;;;;;;;;;;5053718;28;20113;-69
2021/06/02 04:07:04;;;;;;;0.00;0.00;;;;;;;;;;5085141;28;20161;-68
2021/06/02 04:09:30;;;;;;;0.10;0.10;;;;;;;;;;5100541;28;20016;-68
2021/06/02 04:12:04;;;;;;;0.00;0.00;;;;;;;;;;5079409;28;20043;-68
2021/06/02 04:14:31;;;;;;;0.00;0.00;;;;;;;;;;5078611;28;20065;-68
2021/06/02 04:16:56;;;;;;;0.10;0.10;;;;;;;;;;5087872;28;20031;-68
2021/06/02 04:19:21;;;;;;;0.00;0.00;;;;;;;;;;5082086;28;20020;-67
2021/06/02 04:21:47;;;;;;;0.05;0.05;;;;;;;;;;5086147;28;20016;-68
2021/06/02 04:24:16;;;;;;;0.00;0.00;;;;;;;;;;5078929;28;20100;-68
2021/06/02 04:26:41;;;;;;;0.00;0.00;;;;;;;;;;5073224;28;20055;-68
2021/06/02 04:29:09;;;;;;;0.00;0.00;;;;;;;;;;5080793;28;20020;-68
2021/06/02 04:31:34;;;;;;;0.10;0.10;;;;;;;;;;5068793;28;20496;-68
2021/06/02 04:34:00;;;;;;;0.03;0.03;;;;;;;;;;5064421;28;20031;-68
2021/06/02 04:36:25;;;;;;;0.00;0.00;;;;;;;;;;5088108;28;20024;-69
2021/06/02 04:38:54;;;;;;;0.10;0.10;;;;;;;;;;5084998;28;20051;-68
2021/06/02 04:41:20;;;;;;;0.10;0.10;;;;;;;;;;5071468;28;20032;-68
2021/06/02 04:43:45;;;;;;;0.05;0.05;;;;;;;;;;5061873;28;20775;-69
2021/06/02 04:46:11;;;;;;;0.00;0.00;;;;;;;;;;5071474;28;20074;-69
2021/06/02 04:48:36;;;;;;;0.00;0.00;;;;;;;;;;5085468;28;20269;-69
2021/06/02 04:51:10;;;;;;;0.00;0.00;;;;;;;;;;5081164;28;20770;-69
2021/06/02 04:53:51;;;;;;;0.00;0.00;;;;;;;;;;5059266;28;20103;-69
2021/06/02 04:56:16;;;;;;;0.00;0.00;;;;;;;;;;5097732;28;20635;-69
2021/06/02 04:58:49;;;;;;;0.00;0.00;;;;;;;;;;5079323;28;20110;-68
2021/06/02 05:01:30;;;;;;;0.00;0.00;;;;;;;;;;5080371;28;20270;-71
2021/06/02 05:04:14;;;;;;;0.00;0.00;;;;;;;;;;5081715;28;20068;-69
2021/06/02 05:06:58;;;;;;;0.00;0.00;;;;;;;;;;5104353;28;20027;-70
2021/06/02 05:09:29;;;;;;;0.00;0.00;;;;;;;;;;5080679;28;20012;-71
2021/06/02 05:12:13;;;;;;;0.00;0.00;;;;;;;;;;5057311;28;20051;-71
2021/06/02 05:14:57;;;;;;;0.03;0.03;;;;;;;;;;5091789;28;20027;-71
2021/06/02 05:17:31;;;;;;;0.10;0.10;;;;;;;;;;5093076;28;20028;-71
2021/06/02 05:20:27;;;;;;;0.08;0.08;;;;;;;;;;5098467;28;20028;-71
2021/06/02 05:23:11;;;;;;;0.00;0.00;;;;;;;;;;5075944;28;20024;-71
2021/06/02 05:25:45;;;;;;;0.00;0.00;;;;;;;;;;5083141;28;20372;-71
2021/06/02 05:28:34;;;;;;;0.00;0.00;;;;;;;;;;5092192;28;20434;-71
2021/06/02 05:31:18;;;;;;;0.10;0.10;;;;;;;;;;5034581;28;20465;-71
2021/06/02 05:34:01;;;;;;;0.10;0.10;;;;;;;;;;5093709;28;20020;-71
2021/06/02 05:36:45;;;;;;;0.10;0.10;;;;;;;;;;5095165;28;20018;-70
2021/06/02 05:39:17;;;;;;;0.10;0.10;;;;;;;;;;5080331;28;20477;-71
2021/06/02 05:41:46;;;;;;;0.00;0.00;;;;;;;;;;5073253;28;20024;-71
2021/06/02 05:44:23;;;;;;;0.10;0.10;;;;;;;;;;5081756;28;20054;-71
2021/06/02 05:46:54;;;;;;;0.00;0.00;;;;;;;;;;5088674;28;20022;-70
2021/06/02 05:49:22;;;;;;;0.00;0.00;;;;;;;;;;5104218;28;20034;-71
2021/06/02 05:52:02;;;;;;;0.05;0.05;;;;;;;;;;5087777;28;20529;-71
2021/06/02 05:54:50;;;;;;;0.00;0.00;;;;;;;;;;5084191;28;20020;-71
2021/06/02 05:57:23;;;;;;;0.00;0.00;;;;;;;;;;5063393;28;20024;-71
2021/06/02 06:00:00;;;;;;;0.10;0.10;;;;;;;;;;5075446;28;20024;-71
2021/06/02 06:02:44;;;;;;;0.00;0.00;;;;;;;;;;5081402;28;20035;-71
2021/06/02 06:05:16;;;;;;;0.00;0.00;;;;;;;;;;5076599;28;20136;-71
2021/06/02 06:07:41;;;;;;;0.00;0.00;;;;;;;;;;5089491;28;20069;-70
2021/06/02 06:10:25;;;;;;;0.00;0.00;;;;;;;;;;5094906;28;20468;-70
2021/06/02 06:13:02;;;;;;;0.00;0.00;;;;;;;;;;5107699;28;20273;-70
2021/06/02 06:15:46;;;;;;;0.00;0.00;;;;;;;;;;5092041;28;20016;-70
2021/06/02 06:18:23;;;;;;;0.00;0.00;;;;;;;;;;5104444;28;20015;-70
2021/06/02 06:20:58;;;;;;;0.00;0.00;;;;;;;;;;5094664;28;20356;-70
2021/06/02 06:23:27;;;;;;;0.00;0.00;;;;;;;;;;5109554;28;20107;-71
2021/06/02 06:25:52;;;;;;;0.00;0.00;;;;;;;;;;5095662;28;20051;-71
2021/06/02 06:28:24;;;;;;;0.00;0.00;;;;;;;;;;5113539;28;21309;-71
2021/06/02 06:30:50;;;;;;;0.00;0.00;;;;;;;;;;5086386;28;20027;-71
2021/06/02 06:33:16;;;;;;;0.00;0.00;;;;;;;;;;5076928;28;20023;-71
2021/06/02 06:35:41;;;;;;;0.00;0.00;;;;;;;;;;5078417;28;20030;-71
2021/06/02 06:38:36;;;;;;;0.00;0.00;;;;;;;;;;5077697;28;20028;-72
2021/06/02 06:41:03;;;;;;;0.00;0.00;;;;;;;;;;5090034;28;20036;-70
2021/06/02 06:43:29;;;;;;;0.00;0.00;;;;;;;;;;5092450;28;20344;-70
2021/06/02 06:45:54;;;;;;;0.00;0.00;;;;;;;;;;5094669;28;20103;-69
2021/06/02 06:48:21;;;;;;;0.00;0.00;;;;;;;;;;5094816;28;20026;-70
2021/06/02 06:50:50;;;;;;;0.00;0.00;;;;;;;;;;5081729;28;21601;-69
2021/06/02 06:53:16;;;;;;;0.00;0.00;;;;;;;;;;5076451;28;20051;-73
2021/06/02 06:55:41;;;;;;;0.00;0.00;;;;;;;;;;5075695;28;20487;-70
2021/06/02 06:58:06;;;;;;;0.00;0.00;;;;;;;;;;5104290;28;20271;-70
2021/06/02 07:00:32;;;;;;;0.08;0.08;;;;;;;;;;5107704;28;20277;-68
2021/06/02 07:02:58;;;;;;;0.00;0.00;;;;;;;;;;5076622;28;20024;-79
2021/06/02 07:05:23;;;;;;;0.00;0.00;;;;;;;;;;5060239;28;20044;-71
2021/06/02 07:07:48;;;;;;;0.00;0.00;;;;;;;;;;5079366;28;20254;-72
2021/06/02 07:10:14;;;;;;;0.00;0.00;;;;;;;;;;5056588;28;20050;-73
2021/06/02 07:12:42;;;;;;;0.00;0.00;;;;;;;;;;5088025;28;20361;-72
2021/06/02 07:15:08;;;;;;;0.00;0.00;;;;;;;;;;5072351;28;20051;-72
2021/06/02 07:17:35;;;;;;;0.00;0.00;;;;;;;;;;5049662;28;20064;-72
2021/06/02 07:20:00;;;;;;;0.00;0.00;;;;;;;;;;5067881;28;20441;-72
2021/06/02 07:22:26;;;;;;;0.00;0.00;;;;;;;;;;5081158;28;20108;-73
2021/06/02 07:24:53;;;;;;;0.00;0.00;;;;;;;;;;5075559;28;20365;-73
2021/06/02 07:27:18;;;;;;;0.00;0.00;;;;;;;;;;5078024;28;20027;-72
2021/06/02 07:29:43;;;;;;;0.00;0.00;;;;;;;;;;5054305;28;20016;-73
2021/06/02 07:32:08;;;;;;;0.00;0.00;;;;;;;;;;5068748;28;21053;-73
2021/06/02 07:34:34;;;;;;;0.00;0.00;;;;;;;;;;5050373;28;20111;-73
2021/06/02 07:36:59;;;;;;;0.00;0.00;;;;;;;;;;5076748;28;20029;-73
2021/06/02 07:39:24;;;;;;;0.00;0.00;;;;;;;;;;5059428;28;20024;-73
2021/06/02 07:41:50;;;;;;;0.00;0.00;;;;;;;;;;5095058;28;20339;-71
2021/06/02 07:44:15;;;;;;;0.00;0.00;;;;;;;;;;5092169;28;20538;-71
2021/06/02 07:46:40;;;;;;;0.00;0.00;;;;;;;;;;5066072;28;20266;-71
2021/06/02 07:49:05;;;;;;;0.00;0.00;;;;;;;;;;5080819;28;20066;-72
2021/06/02 07:51:30;;;;;;;0.00;0.00;;;;;;;;;;5061835;28;20282;-72
2021/06/02 07:53:56;;;;;;;0.00;0.00;;;;;;;;;;5093819;28;20024;-72
2021/06/02 07:56:21;;;;;;;0.00;0.00;;;;;;;;;;5073879;28;20289;-71
2021/06/02 07:58:46;;;;;;;0.00;0.00;;;;;;;;;;5082415;28;20265;-71
2021/06/02 08:01:11;;;;;;;0.00;0.00;;;;;;;;;;5070472;28;20138;-71
2021/06/02 08:03:36;;;;;;;0.00;0.00;;;;;;;;;;5093316;28;20031;-71
2021/06/02 08:06:02;;;;;;;0.00;0.00;;;;;;;;;;5079955;28;20285;-71
2021/06/02 08:08:27;;;;;;;0.00;0.00;;;;;;;;;;5063805;28;20267;-71
2021/06/02 08:10:52;;;;;;;0.00;0.00;;;;;;;;;;5080936;28;20077;-71
2021/06/02 08:13:17;;;;;;;0.00;0.00;;;;;;;;;;5060774;28;20025;-72
2021/06/02 08:15:42;;;;;;;0.00;0.00;;;;;;;;;;5083344;28;20028;-72
2021/06/02 08:18:08;;;;;;;0.00;0.00;;;;;;;;;;5073734;28;20277;-71
2021/06/02 08:20:33;;;;;;;0.00;0.00;;;;;;;;;;5073995;28;20289;-71
2021/06/02 08:22:58;;;;;;;0.00;0.00;;;;;;;;;;5070695;28;20027;-71
2021/06/02 08:25:23;;;;;;;0.00;0.00;;;;;;;;;;5085634;28;20269;-71
2021/06/02 08:27:49;;;;;;;0.00;0.00;;;;;;;;;;5078935;28;20604;-71
2021/06/02 08:30:14;;;;;;;0.00;0.00;;;;;;;;;;5073757;28;20258;-72
2021/06/02 08:32:39;;;;;;;0.00;0.00;;;;;;;;;;5063669;28;20024;-73
2021/06/02 08:35:05;;;;;;;0.00;0.00;;;;;;;;;;5064635;28;20048;-71
2021/06/02 08:37:30;;;;;;;0.00;0.00;;;;;;;;;;5097100;28;20020;-71
2021/06/02 08:39:55;;;;;;;0.00;0.00;;;;;;;;;;5083368;28;20035;-71
2021/06/02 08:42:21;;;;;;;0.00;0.00;;;;;;;;;;5059543;28;20052;-72
2021/06/02 08:44:46;;;;;;;0.00;0.00;;;;;;;;;;5073069;28;20273;-74
2021/06/02 08:47:11;;;;;;;0.00;0.00;;;;;;;;;;5079408;28;20270;-72
2021/06/02 08:49:36;;;;;;;0.00;0.00;;;;;;;;;;5075705;28;20023;-72
2021/06/02 08:52:05;;;;;;;0.00;0.00;;;;;;;;;;5084209;28;20482;-72
2021/06/02 08:54:30;;;;;;;0.00;0.00;;;;;;;;;;5068328;28;20020;-72
2021/06/02 08:56:55;;;;;;;0.00;0.00;;;;;;;;;;5077306;28;20046;-72
2021/06/02 08:59:21;;;;;;;0.00;0.00;;;;;;;;;;5074161;28;20250;-73
2021/06/02 09:01:46;;;;;;;0.00;0.00;;;;;;;;;;5089036;28;20029;-71
2021/06/02 09:04:11;;;;;;;0.00;0.00;;;;;;;;;;5075151;28;20045;-72
2021/06/02 09:06:37;;;;;;;0.00;0.00;;;;;;;;;;5071808;28;20017;-73
2021/06/02 09:09:05;;;;;;;0.00;0.00;;;;;;;;;;5063688;28;20024;-72
2021/06/02 09:11:35;;;;;;;0.00;0.00;;;;;;;;;;5061504;28;20035;-72
2021/06/02 09:14:00;;;;;;;0.00;0.00;;;;;;;;;;5057338;28;20111;-71
2021/06/02 09:16:32;;;;;;;0.00;0.00;;;;;;;;;;5056959;28;20537;-71
2021/06/02 09:19:01;;;;;;;0.00;0.00;;;;;;;;;;5090568;28;20277;-72
2021/06/02 09:21:30;;;;;;;0.00;0.00;;;;;;;;;;5062826;28;20029;-71
2021/06/02 09:23:55;;;;;;;0.00;0.00;;;;;;;;;;5044149;28;20028;-71
2021/06/02 09:26:20;;;;;;;0.00;0.00;;;;;;;;;;5076678;28;20439;-72
2021/06/02 09:28:52;;;;;;;0.00;0.00;;;;;;;;;;5080036;28;20324;-72
2021/06/02 09:31:17;;;;;;;0.00;0.00;;;;;;;;;;5087376;28;20026;-71
2021/06/02 09:33:46;;;;;;;0.00;0.00;;;;;;;;;;5061052;28;20013;-72
2021/06/02 09:36:11;;;;;;;0.00;0.00;;;;;;;;;;5059183;28;20458;-72
2021/06/02 09:38:36;;;;;;;0.00;0.00;;;;;;;;;;5065208;28;20027;-73
2021/06/02 09:41:01;;;;;;;0.00;0.00;;;;;;;;;;5051010;28;20282;-73
2021/06/02 09:43:30;;;;;;;0.00;0.00;;;;;;;;;;5070355;28;20676;-73
2021/06/02 09:46:05;;;;;;;0.00;0.00;;;;;;;;;;5073919;28;20315;-73
2021/06/02 09:48:40;;;;;;;0.00;0.00;;;;;;;;;;5053094;28;20455;-73
2021/06/02 09:51:05;;;;;;;0.00;0.00;;;;;;;;;;5064562;28;20055;-74
2021/06/02 09:53:30;;;;;;;0.00;0.00;;;;;;;;;;5062871;28;20477;-74
2021/06/02 09:55:55;;;;;;;0.00;0.00;;;;;;;;;;5062429;28;20267;-74
2021/06/02 09:58:20;;;;;;;0.00;0.00;;;;;;;;;;5088675;28;20273;-73
2021/06/02 10:00:47;;;;;;;0.00;0.00;;;;;;;;;;5050951;28;20031;-74
2021/06/02 10:03:13;;;;;;;0.00;0.00;;;;;;;;;;5051576;28;20020;-73
2021/06/02 10:05:39;;;;;;;0.00;0.00;;;;;;;;;;5066336;28;20040;-73
2021/06/02 10:08:05;;;;;;;0.00;0.00;;;;;;;;;;5083833;28;20024;-73
2021/06/02 10:10:31;;;;;;;0.00;0.00;;;;;;;;;;5057248;28;20358;-72
2021/06/02 10:12:57;;;;;;;0.00;0.00;;;;;;;;;;5063365;28;20081;-72
2021/06/02 10:15:38;;;;;;;0.00;0.00;;;;;;;;;;5064694;28;20024;-71
2021/06/02 10:18:04;;;;;;;0.00;0.00;;;;;;;;;;5081180;28;20040;-71
2021/06/02 10:20:29;;;;;;;0.00;0.00;;;;;;;;;;5079194;28;20091;-71
2021/06/02 10:22:58;;;;;;;0.00;0.00;;;;;;;;;;5094539;28;20027;-72
2021/06/02 10:25:24;;;;;;;0.00;0.00;;;;;;;;;;5074701;28;20016;-73
2021/06/02 10:27:50;;;;;;;0.00;0.00;;;;;;;;;;5077709;28;20053;-73
2021/06/02 10:30:15;;;;;;;0.00;0.00;;;;;;;;;;5064199;28;20024;-73
2021/06/02 10:32:41;;;;;;;0.00;0.00;;;;;;;;;;5079644;28;20020;-73
2021/06/02 10:35:06;;;;;;;0.00;0.00;;;;;;;;;;5072787;28;20020;-74
2021/06/02 10:37:32;;;;;;;0.00;0.00;;;;;;;;;;5075307;28;20429;-73
2021/06/02 10:40:03;;;;;;;0.00;0.00;;;;;;;;;;5051907;28;20446;-73
2021/06/02 10:42:38;;;;;;;0.00;0.00;;;;;;;;;;5065999;28;20050;-73
2021/06/02 10:45:20;;;;;;;0.00;0.00;;;;;;;;;;5068320;28;20108;-74
2021/06/02 10:47:51;;;;;;;0.00;0.00;;;;;;;;;;5052411;28;20020;-73
2021/06/02 10:50:26;;;;;;;0.00;0.00;;;;;;;;;;5077684;28;20016;-73
2021/06/02 10:52:52;;;;;;;0.00;0.00;;;;;;;;;;5055635;28;20481;-73
2021/06/02 10:55:35;;;;;;;0.00;0.00;;;;;;;;;;5061516;28;20031;-73
2021/06/02 10:58:19;;;;;;;0.00;0.00;;;;;;;;;;5068135;28;20638;-74
2021/06/02 11:00:45;;;;;;;0.00;0.00;;;;;;;;;;5070492;28;20024;-73
2021/06/02 11:03:20;;;;;;;0.00;0.00;;;;;;;;;;5079469;28;20017;-73
2021/06/02 11:05:45;;;;;;;0.00;0.00;;;;;;;;;;5070318;28;20076;-73
2021/06/02 11:08:10;;;;;;;0.00;0.00;;;;;;;;;;5073652;28;20062;-72
2021/06/02 11:10:39;;;;;;;0.00;0.00;;;;;;;;;;5091648;28;20456;-74
2021/06/02 11:13:05;;;;;;;0.00;0.00;;;;;;;;;;5092138;28;20119;-73
2021/06/02 11:15:30;;;;;;;0.00;0.00;;;;;;;;;;5074011;28;20099;-74
2021/06/02 11:18:08;;;;;;;0.00;0.00;;;;;;;;;;5092169;28;20020;-72
2021/06/02 11:20:49;;;;;;;0.00;0.00;;;;;;;;;;5072830;28;20050;-74
2021/06/02 11:23:18;;;;;;;0.00;0.00;;;;;;;;;;5073855;28;20024;-73
2021/06/02 11:25:44;;;;;;;0.00;0.00;;;;;;;;;;5053021;28;20427;-74
2021/06/02 11:28:29;;;;;;;0.00;0.00;;;;;;;;;;5074041;28;20107;-73
2021/06/02 11:31:13;;;;;;;0.00;0.00;;;;;;;;;;5091796;28;20024;-73
2021/06/02 11:33:38;;;;;;;0.00;0.00;;;;;;;;;;5074031;28;20556;-73
2021/06/02 11:36:04;;;;;;;0.00;0.00;;;;;;;;;;5074337;28;20040;-73
2021/06/02 11:38:29;;;;;;;0.00;0.00;;;;;;;;;;5074498;28;20103;-73
2021/06/02 11:40:55;;;;;;;0.00;0.00;;;;;;;;;;5074422;28;20028;-74
2021/06/02 11:43:20;;;;;;;0.00;0.00;;;;;;;;;;5057477;28;20027;-73
2021/06/02 11:45:48;;;;;;;0.00;0.00;;;;;;;;;;5092009;28;20039;-73
2021/06/02 11:48:24;;;;;;;0.00;0.00;;;;;;;;;;5074105;28;20012;-73
2021/06/02 11:50:49;;;;;;;0.00;0.00;;;;;;;;;;5074327;28;20024;-74
2021/06/02 11:53:15;;;;;;;0.00;0.00;;;;;;;;;;5073632;28;20585;-73
2021/06/02 11:55:40;;;;;;;0.00;0.00;;;;;;;;;;5056951;28;20020;-73
2021/06/02 11:58:05;;;;;;;0.00;0.00;;;;;;;;;;5073964;28;20035;-73
2021/06/02 12:00:33;;;;;;;0.00;0.00;;;;;;;;;;5074241;28;20308;-73
2021/06/02 12:02:59;;;;;;;0.00;0.00;;;;;;;;;;5057668;28;20031;-74
2021/06/02 12:05:27;;;;;;;0.00;0.00;;;;;;;;;;5088755;28;20041;-74
2021/06/02 12:08:00;;;;;;;0.00;0.00;;;;;;;;;;5054615;28;20377;-74
2021/06/02 12:10:30;;;;;;;0.00;0.00;;;;;;;;;;5051578;28;20264;-74
2021/06/02 12:12:55;;;;;;;0.00;0.00;;;;;;;;;;5071054;28;20224;-74
2021/06/02 12:15:20;;;;;;;0.00;0.00;;;;;;;;;;5068110;28;20042;-75
2021/06/02 12:17:45;;;;;;;0.00;0.00;;;;;;;;;;5087553;28;20020;-74
2021/06/02 12:20:11;;;;;;;0.00;0.00;;;;;;;;;;5052523;28;20532;-74
2021/06/02 12:22:37;;;;;;;0.00;0.00;;;;;;;;;;5073039;28;20043;-74
2021/06/02 12:25:13;;;;;;;0.00;0.00;;;;;;;;;;5068900;28;20048;-73
2021/06/02 12:27:44;;;;;;;0.00;0.00;;;;;;;;;;5068720;28;20015;-74
2021/06/02 12:30:13;;;;;;;0.00;0.00;;;;;;;;;;5065303;28;20027;-74
2021/06/02 12:32:45;;;;;;;0.00;0.00;;;;;;;;;;5093768;28;20099;-74
2021/06/02 12:35:25;;;;;;;0.00;0.00;;;;;;;;;;5068309;28;20378;-74
2021/06/02 12:37:56;;;;;;;0.00;0.00;;;;;;;;;;5083719;28;20024;-74
2021/06/02 12:40:21;;;;;;;0.00;0.00;;;;;;;;;;5068503;28;20024;-74
2021/06/02 12:42:47;;;;;;;0.00;0.00;;;;;;;;;;5050059;28;20027;-74
2021/06/02 12:45:19;;;;;;;0.00;0.00;;;;;;;;;;5083220;28;20017;-75
2021/06/02 12:47:44;;;;;;;0.00;0.00;;;;;;;;;;5052070;28;20069;-74
2021/06/02 12:50:10;;;;;;;0.00;0.00;;;;;;;;;;5083209;28;20090;-75
2021/06/02 12:52:35;;;;;;;0.00;0.00;;;;;;;;;;5069523;28;20020;-74
2021/06/02 12:55:09;;;;;;;0.00;0.00;;;;;;;;;;5067240;28;20043;-75
2021/06/02 12:57:34;;;;;;;0.00;0.00;;;;;;;;;;5073670;28;20032;-74
2021/06/02 13:00:00;;;;;;;0.00;0.00;;;;;;;;;;5053244;28;20059;-74
2021/06/02 13:02:25;;;;;;;0.00;0.00;;;;;;;;;;5085536;28;20024;-74
2021/06/02 13:04:50;;;;;;;0.00;0.00;;;;;;;;;;5100544;28;20036;-75
2021/06/02 13:07:32;;;;;;;0.00;0.00;;;;;;;;;;5095919;28;20016;-75
2021/06/02 13:09:58;;;;;;;0.00;0.00;;;;;;;;;;5089454;28;20073;-74
2021/06/02 13:12:26;;;;;;;0.00;0.00;;;;;;;;;;5095218;28;20043;-75
2021/06/02 13:14:51;;;;;;;0.00;0.00;;;;;;;;;;5096678;28;20098;-74
2021/06/02 13:17:16;;;;;;;0.00;0.00;;;;;;;;;;5080066;28;20053;-75
2021/06/02 13:19:43;;;;;;;0.00;0.00;;;;;;;;;;5097072;28;20537;-74
2021/06/02 13:22:18;;;;;;;0.00;0.00;;;;;;;;;;5094817;28;20054;-74
2021/06/02 13:24:43;;;;;;;0.00;0.00;;;;;;;;;;5094470;28;20008;-75
2021/06/02 13:27:21;;;;;;;0.00;0.00;;;;;;;;;;5096641;28;20529;-74
2021/06/02 13:29:59;;;;;;;0.00;0.00;;;;;;;;;;5096963;28;20567;-74
2021/06/02 13:32:24;;;;;;;0.00;0.00;;;;;;;;;;5115710;28;20022;-74
2021/06/02 13:34:49;;;;;;;0.00;0.00;;;;;;;;;;5097527;28;20039;-74
2021/06/02 13:37:18;;;;;;;0.00;0.00;;;;;;;;;;5116140;28;20480;-75
2021/06/02 13:40:02;;;;;;;0.00;0.00;;;;;;;;;;5097993;28;20094;-75
2021/06/02 13:42:27;;;;;;;0.00;0.00;;;;;;;;;;5097175;28;20027;-74
2021/06/02 13:44:56;;;;;;;0.00;0.00;;;;;;;;;;5116430;28;20466;-74
2021/06/02 13:47:28;;;;;;;0.00;0.00;;;;;;;;;;5080219;28;20387;-74
2021/06/02 13:50:07;;;;;;;0.00;0.00;;;;;;;;;;5077702;28;20068;-74
2021/06/02 13:52:32;;;;;;;0.00;0.00;;;;;;;;;;5112900;28;20023;-74
2021/06/02 13:54:58;;;;;;;0.00;0.00;;;;;;;;;;5114791;28;20035;-74
2021/06/02 13:57:23;;;;;;;0.00;0.00;;;;;;;;;;5078656;28;20023;-74
2021/06/02 13:59:49;;;;;;;0.00;0.00;;;;;;;;;;5096022;28;20026;-74
2021/06/02 14:02:22;;;;;;;0.00;0.00;;;;;;;;;;5096161;28;20058;-73
2021/06/02 14:04:48;;;;;;;0.00;0.00;;;;;;;;;;5071007;28;20047;-74
2021/06/02 14:07:14;;;;;;;0.00;0.00;;;;;;;;;;5083084;28;20024;-74
2021/06/02 14:09:39;;;;;;;0.00;0.00;;;;;;;;;;5091373;28;20004;-74
2021/06/02 14:12:05;;;;;;;0.00;0.00;;;;;;;;;;5077123;28;20024;-74
2021/06/02 14:14:30;;;;;;;0.00;0.00;;;;;;;;;;5096653;28;20097;-74
2021/06/02 14:16:55;;;;;;;0.00;0.00;;;;;;;;;;5091143;28;20028;-75
2021/06/02 14:19:20;;;;;;;0.00;0.00;;;;;;;;;;5080362;28;20266;-75
2021/06/02 14:21:45;;;;;;;0.00;0.00;;;;;;;;;;5068988;28;20024;-75
2021/06/02 14:24:11;;;;;;;0.00;0.00;;;;;;;;;;5076436;28;20020;-73
2021/06/02 14:26:36;;;;;;;0.00;0.00;;;;;;;;;;5069221;28;20358;-73
2021/06/02 14:29:02;;;;;;;0.00;0.00;;;;;;;;;;5072070;28;20076;-73
2021/06/02 14:31:27;;;;;;;0.00;0.00;;;;;;;;;;5063122;28;20021;-74
2021/06/02 14:33:52;;;;;;;0.00;0.00;;;;;;;;;;5063723;28;20032;-74
2021/06/02 14:36:17;;;;;;;0.00;0.00;;;;;;;;;;5061634;28;20859;-74
2021/06/02 14:38:43;;;;;;;0.00;0.00;;;;;;;;;;5076892;28;20478;-74
2021/06/02 14:41:08;;;;;;;0.00;0.00;;;;;;;;;;5059543;28;20620;-74
2021/06/02 14:43:33;;;;;;;0.00;0.00;;;;;;;;;;5050879;28;20280;-74
2021/06/02 14:45:59;;;;;;;0.00;0.00;;;;;;;;;;5079777;28;20023;-73
2021/06/02 14:48:25;;;;;;;0.00;0.00;;;;;;;;;;5090741;28;20077;-74
2021/06/02 14:50:50;;;;;;;0.00;0.00;;;;;;;;;;5071969;28;20468;-74
2021/06/02 14:53:15;;;;;;;0.00;0.00;;;;;;;;;;5059982;28;20572;-74
2021/06/02 14:55:41;;;;;;;0.00;0.00;;;;;;;;;;5082118;28;20701;-74
2021/06/02 14:58:06;;;;;;;0.00;0.00;;;;;;;;;;5070003;28;20024;-74
2021/06/02 15:00:32;;;;;;;0.00;0.00;;;;;;;;;;5091839;28;20546;-74